createdAt,value
2023-04-24T00:02:04.610Z,94.71
2023-04-24T00:04:33.189Z,94.01
2023-04-24T00:07:01.281Z,94.26
2023-04-24T00:09:28.633Z,94.26
2023-04-24T00:11:55.580Z,94.40
2023-04-24T00:14:22.958Z,95.14
2023-04-24T00:16:50.002Z,94.71
2023-04-24T00:19:17.653Z,94.79
2023-04-24T00:21:44.524Z,95.02
2023-04-24T00:24:11.482Z,95.24
2023-04-24T00:26:38.233Z,95.28
2023-04-24T00:29:04.999Z,95.96
2023-04-24T00:31:31.833Z,97.17
2023-04-24T00:33:59.302Z,97.75
2023-04-24T00:36:26.466Z,98.41
2023-04-24T00:38:53.207Z,98.06
2023-04-24T00:41:20.081Z,98.69
2023-04-24T00:43:47.311Z,99.38
2023-04-24T00:46:14.792Z,99.13
2023-04-24T00:48:41.733Z,99.38
2023-04-24T00:51:08.577Z,100.00
2023-04-24T00:53:35.853Z,100.00
2023-04-24T00:56:04.146Z,100.00
2023-04-24T00:58:32.333Z,100.00
2023-04-24T01:01:02.111Z,100.00
2023-04-24T01:03:33.240Z,100.00
2023-04-24T01:06:00.853Z,100.00
2023-04-24T01:08:29.433Z,100.00
2023-04-24T01:10:57.944Z,100.00
2023-04-24T01:13:27.700Z,100.00
2023-04-24T01:15:54.659Z,100.00
2023-04-24T01:18:22.978Z,100.00
2023-04-24T01:20:54.231Z,100.00
2023-04-24T01:23:21.211Z,100.00
2023-04-24T01:25:49.287Z,100.00
2023-04-24T01:28:18.414Z,100.00
2023-04-24T01:30:45.931Z,100.00
2023-04-24T01:33:14.684Z,100.00
2023-04-24T01:35:41.713Z,100.00
2023-04-24T01:38:08.843Z,100.00
2023-04-24T01:40:36.115Z,100.00
2023-04-24T01:43:03.701Z,100.00
2023-04-24T01:45:30.571Z,100.00
2023-04-24T01:47:58.298Z,100.00
2023-04-24T01:50:25.292Z,100.00
2023-04-24T01:52:52.285Z,100.00
2023-04-24T01:55:22.175Z,100.00
2023-04-24T01:57:49.308Z,100.00
2023-04-24T02:00:16.454Z,100.00
2023-04-24T02:02:45.832Z,100.00
2023-04-24T02:05:14.496Z,100.00
2023-04-24T02:07:41.261Z,100.00
2023-04-24T02:10:08.663Z,100.00
2023-04-24T02:12:35.758Z,100.00
2023-04-24T02:15:02.646Z,100.00
2023-04-24T02:17:29.521Z,100.00
2023-04-24T02:19:56.187Z,100.00
2023-04-24T02:22:23.053Z,100.00
2023-04-24T02:24:49.801Z,100.00
2023-04-24T02:27:16.526Z,100.00
2023-04-24T02:29:44.017Z,100.00
2023-04-24T02:32:13.812Z,100.00
2023-04-24T02:34:43.680Z,100.00
2023-04-24T02:37:11.140Z,100.00
2023-04-24T02:39:38.144Z,100.00
2023-04-24T02:42:09.104Z,100.00
2023-04-24T02:44:36.106Z,100.00
2023-04-24T02:47:03.058Z,100.00
2023-04-24T02:49:29.707Z,100.00
2023-04-24T02:51:56.530Z,100.00
2023-04-24T02:54:23.361Z,100.00
2023-04-24T02:56:50.094Z,100.00
2023-04-24T02:59:16.731Z,100.00
2023-04-24T03:01:43.517Z,100.00
2023-04-24T03:04:11.578Z,100.00
2023-04-24T03:06:38.662Z,100.00
2023-04-24T03:09:05.868Z,100.00
2023-04-24T03:11:35.903Z,100.00
2023-04-24T03:14:02.869Z,100.00
2023-04-24T03:16:29.622Z,100.00
2023-04-24T03:18:56.508Z,100.00
2023-04-24T03:21:26.335Z,100.00
2023-04-24T03:23:53.732Z,100.00
2023-04-24T03:26:20.749Z,100.00
2023-04-24T03:28:47.405Z,100.00
2023-04-24T03:31:14.252Z,100.00
2023-04-24T03:33:40.955Z,100.00
2023-04-24T03:36:07.885Z,100.00
2023-04-24T03:38:34.814Z,100.00
2023-04-24T03:41:01.546Z,100.00
2023-04-24T03:43:28.593Z,100.00
2023-04-24T03:45:55.420Z,100.00
2023-04-24T03:48:22.103Z,100.00
2023-04-24T03:50:49.239Z,100.00
2023-04-24T03:53:16.277Z,100.00
2023-04-24T03:55:45.909Z,100.00
2023-04-24T03:58:12.753Z,100.00
2023-04-24T04:00:41.362Z,100.00
2023-04-24T04:03:08.542Z,100.00
2023-04-24T04:05:35.942Z,100.00
2023-04-24T04:08:03.196Z,100.00
2023-04-24T04:10:30.095Z,100.00
2023-04-24T04:12:57.203Z,100.00
2023-04-24T04:15:24.248Z,100.00
2023-04-24T04:17:51.130Z,100.00
2023-04-24T04:20:18.023Z,100.00
2023-04-24T04:22:44.830Z,100.00
2023-04-24T04:25:12.749Z,100.00
2023-04-24T04:27:40.181Z,100.00
2023-04-24T04:30:10.922Z,100.00
2023-04-24T04:32:38.380Z,100.00
2023-04-24T04:35:05.773Z,100.00
2023-04-24T04:37:34.361Z,100.00
2023-04-24T04:40:04.591Z,100.00
2023-04-24T04:42:31.674Z,100.00
2023-04-24T04:44:58.823Z,100.00
2023-04-24T04:47:25.831Z,100.00
2023-04-24T04:49:53.110Z,100.00
2023-04-24T04:52:22.862Z,100.00
2023-04-24T04:54:49.829Z,100.00
2023-04-24T04:57:16.495Z,100.00
2023-04-24T04:59:43.478Z,100.00
2023-04-24T05:02:10.740Z,100.00
2023-04-24T05:04:37.721Z,100.00
2023-04-24T05:07:05.023Z,100.00
2023-04-24T05:09:31.769Z,100.00
2023-04-24T05:11:58.572Z,100.00
2023-04-24T05:14:25.377Z,96.15
2023-04-24T05:16:52.108Z,92.41
2023-04-24T05:19:19.223Z,88.07
2023-04-24T05:21:46.524Z,85.42
2023-04-24T05:24:13.298Z,83.42
2023-04-24T05:26:43.279Z,81.57
2023-04-24T05:29:10.435Z,81.85
2023-04-24T05:31:37.500Z,77.22
2023-04-24T05:34:04.293Z,75.92
2023-04-24T05:36:32.001Z,73.16
2023-04-24T05:38:59.121Z,72.43
2023-04-24T05:41:26.370Z,68.95
2023-04-24T05:43:53.015Z,67.95
2023-04-24T05:46:20.297Z,66.38
2023-04-24T05:48:47.282Z,64.54
2023-04-24T05:51:14.293Z,62.66
2023-04-24T05:53:41.065Z,64.09
2023-04-24T05:56:08.239Z,62.07
2023-04-24T05:58:35.111Z,60.23
2023-04-24T06:01:02.899Z,59.96
2023-04-24T06:03:30.248Z,58.85
2023-04-24T06:05:57.106Z,57.84
2023-04-24T06:08:23.769Z,57.38
2023-04-24T06:10:50.907Z,55.36
2023-04-24T06:13:17.879Z,55.33
2023-04-24T06:15:45.246Z,55.60
2023-04-24T06:18:12.130Z,54.32
2023-04-24T06:20:39.179Z,52.01
2023-04-24T06:23:06.107Z,50.59
2023-04-24T06:25:32.918Z,49.31
2023-04-24T06:27:59.799Z,46.80
2023-04-24T06:30:26.604Z,45.75
2023-04-24T06:32:55.801Z,45.35
2023-04-24T06:35:24.421Z,46.78
2023-04-24T06:37:51.347Z,43.28
2023-04-24T06:40:19.754Z,44.06
2023-04-24T06:42:46.604Z,42.62
2023-04-24T06:45:13.649Z,42.83
2023-04-24T06:47:40.855Z,41.69
2023-04-24T06:50:08.249Z,41.52
2023-04-24T06:52:35.060Z,41.43
2023-04-24T06:55:05.541Z,40.57
2023-04-24T06:57:32.962Z,39.91
2023-04-24T07:00:00.246Z,40.21
2023-04-24T07:02:27.526Z,41.04
2023-04-24T07:04:54.914Z,42.31
2023-04-24T07:07:24.980Z,42.23
2023-04-24T07:09:52.492Z,43.64
2023-04-24T07:12:21.653Z,44.25
2023-04-24T07:14:49.044Z,45.86
2023-04-24T07:17:15.972Z,45.45
2023-04-24T07:19:43.424Z,45.79
2023-04-24T07:22:12.544Z,47.65
2023-04-24T07:24:39.220Z,45.10
2023-04-24T07:27:06.429Z,46.28
2023-04-24T07:29:33.332Z,47.63
2023-04-24T07:32:02.051Z,46.04
2023-04-24T07:34:30.496Z,46.12
2023-04-24T07:36:57.261Z,46.09
2023-04-24T07:39:24.622Z,47.12
2023-04-24T07:41:51.719Z,47.35
2023-04-24T07:44:18.369Z,48.98
2023-04-24T07:46:45.269Z,47.47
2023-04-24T07:49:14.208Z,47.74
2023-04-24T07:51:42.979Z,48.03
2023-04-24T07:54:10.162Z,47.96
2023-04-24T07:56:40.163Z,45.70
2023-04-24T07:59:07.307Z,46.33
2023-04-24T08:01:34.162Z,47.57
2023-04-24T08:04:01.295Z,46.74
2023-04-24T08:06:31.714Z,47.30
2023-04-24T08:08:59.760Z,47.53
2023-04-24T08:11:27.452Z,47.56
2023-04-24T08:13:55.833Z,48.14
2023-04-24T08:16:23.065Z,47.52
2023-04-24T08:18:50.289Z,48.00
2023-04-24T08:21:21.031Z,46.90
2023-04-24T08:23:52.431Z,47.77
2023-04-24T08:26:19.630Z,48.14
2023-04-24T08:28:46.484Z,49.18
2023-04-24T08:31:13.584Z,49.04
2023-04-24T08:33:42.040Z,49.78
2023-04-24T08:36:08.944Z,50.59
2023-04-24T08:38:35.944Z,51.06
2023-04-24T08:41:03.599Z,51.32
2023-04-24T08:43:30.751Z,53.13
2023-04-24T08:46:09.090Z,51.02
2023-04-24T08:48:39.422Z,49.77
2023-04-24T08:51:08.057Z,50.23
2023-04-24T08:53:35.836Z,50.61
2023-04-24T08:56:05.664Z,50.28
2023-04-24T08:58:32.790Z,48.72
2023-04-24T09:01:00.149Z,47.20
2023-04-24T09:03:29.574Z,47.57
2023-04-24T09:05:56.702Z,45.51
2023-04-24T09:08:26.316Z,45.52
2023-04-24T09:10:53.416Z,46.32
2023-04-24T09:13:21.575Z,45.64
2023-04-24T09:15:49.570Z,45.66
2023-04-24T09:18:19.228Z,48.21
2023-04-24T09:21:02.253Z,46.89
2023-04-24T09:23:33.254Z,48.13
2023-04-24T09:26:02.306Z,46.69
2023-04-24T09:28:40.264Z,45.74
2023-04-24T09:31:08.325Z,46.58
2023-04-24T09:33:35.649Z,45.92
2023-04-24T09:36:03.606Z,45.75
2023-04-24T09:38:34.438Z,41.71
2023-04-24T09:41:04.528Z,43.09
2023-04-24T09:43:31.746Z,42.72
2023-04-24T09:45:59.829Z,41.30
2023-04-24T09:48:37.529Z,43.00
2023-04-24T09:51:08.022Z,41.69
2023-04-24T09:53:34.835Z,43.80
2023-04-24T09:56:09.364Z,43.21
2023-04-24T09:58:37.836Z,43.42
2023-04-24T10:01:04.866Z,42.92
2023-04-24T10:03:33.130Z,42.82
2023-04-24T10:06:10.399Z,43.52
2023-04-24T10:08:39.926Z,44.36
2023-04-24T10:11:08.403Z,43.48
2023-04-24T10:13:36.713Z,42.73
2023-04-24T10:16:08.468Z,42.50
2023-04-24T10:18:36.443Z,42.45
2023-04-24T10:21:03.920Z,41.07
2023-04-24T10:23:31.883Z,42.37
2023-04-24T10:26:01.452Z,42.85
2023-04-24T10:28:31.877Z,41.45
2023-04-24T10:30:59.527Z,41.66
2023-04-24T10:33:27.466Z,43.33
2023-04-24T10:35:55.102Z,43.58
2023-04-24T10:38:26.310Z,44.37
2023-04-24T10:40:58.341Z,47.28
2023-04-24T10:43:25.518Z,48.27
2023-04-24T10:46:11.577Z,49.31
2023-04-24T10:48:44.693Z,51.61
2023-04-24T10:51:14.152Z,51.46
2023-04-24T10:53:41.016Z,51.93
2023-04-24T10:56:13.412Z,50.73
2023-04-24T10:58:49.369Z,49.63
2023-04-24T11:01:30.816Z,51.56
2023-04-24T11:04:02.704Z,50.36
2023-04-24T11:06:37.632Z,48.76
2023-04-24T11:09:15.067Z,48.63
2023-04-24T11:11:46.945Z,48.61
2023-04-24T11:14:17.458Z,48.56
2023-04-24T11:16:53.828Z,48.53
2023-04-24T11:19:27.647Z,48.34
2023-04-24T11:22:04.980Z,45.83
2023-04-24T11:24:39.083Z,47.22
2023-04-24T11:27:06.010Z,47.13
2023-04-24T11:29:58.750Z,45.79
2023-04-24T11:32:35.021Z,46.22
2023-04-24T11:35:10.369Z,43.83
2023-04-24T11:37:39.509Z,45.11
2023-04-24T11:40:08.894Z,45.33
2023-04-24T11:42:37.309Z,46.25
2023-04-24T11:45:12.986Z,44.79
2023-04-24T11:47:41.025Z,44.18
2023-04-24T11:50:10.817Z,43.33
2023-04-24T11:52:42.796Z,43.33
2023-04-24T11:55:24.102Z,44.07
2023-04-24T11:58:00.726Z,45.98
2023-04-24T12:00:30.473Z,45.96
2023-04-24T12:03:15.846Z,46.11
2023-04-24T12:05:43.193Z,47.01
2023-04-24T12:08:10.581Z,47.78
2023-04-24T12:10:37.956Z,48.13
2023-04-24T12:13:04.693Z,48.01
2023-04-24T12:15:31.721Z,48.68
2023-04-24T12:17:59.045Z,48.69
2023-04-24T12:20:33.875Z,49.21
2023-04-24T12:23:02.576Z,49.22
2023-04-24T12:25:33.886Z,47.96
2023-04-24T12:28:07.142Z,46.80
2023-04-24T12:30:37.248Z,47.43
2023-04-24T12:33:04.834Z,46.82
2023-04-24T12:35:36.855Z,47.86
2023-04-24T12:38:11.933Z,46.54
2023-04-24T12:40:38.757Z,47.17
2023-04-24T12:43:24.110Z,46.30
2023-04-24T12:46:00.154Z,47.23
2023-04-24T12:48:30.438Z,47.17
2023-04-24T12:51:02.672Z,48.08
2023-04-24T12:53:32.980Z,47.52
2023-04-24T12:55:59.811Z,46.50
2023-04-24T12:58:27.046Z,45.98
2023-04-24T13:00:54.016Z,45.66
2023-04-24T13:03:21.486Z,46.13
2023-04-24T13:05:48.475Z,44.99
2023-04-24T13:08:15.633Z,44.80
2023-04-24T13:10:42.496Z,44.73
2023-04-24T13:13:09.864Z,44.77
2023-04-24T13:15:37.421Z,44.64
2023-04-24T13:18:04.098Z,44.20
2023-04-24T13:20:31.165Z,45.52
2023-04-24T13:22:57.896Z,45.44
2023-04-24T13:25:24.826Z,45.64
2023-04-24T13:27:51.987Z,44.17
2023-04-24T13:30:19.109Z,45.03
2023-04-24T13:32:46.011Z,44.81
2023-04-24T13:35:13.098Z,44.48
2023-04-24T13:37:40.104Z,46.03
2023-04-24T13:40:08.204Z,44.46
2023-04-24T13:42:35.409Z,44.27
2023-04-24T13:45:10.926Z,42.61
2023-04-24T13:47:44.994Z,43.35
2023-04-24T13:50:11.726Z,45.14
2023-04-24T13:52:38.620Z,44.22
2023-04-24T13:55:06.053Z,44.38
2023-04-24T13:57:33.814Z,43.77
2023-04-24T14:00:07.166Z,44.05
2023-04-24T14:02:34.112Z,43.06
2023-04-24T14:05:01.899Z,44.00
2023-04-24T14:07:29.667Z,42.20
2023-04-24T14:09:56.386Z,44.11
2023-04-24T14:12:23.338Z,43.91
2023-04-24T14:14:50.348Z,44.32
2023-04-24T14:17:17.229Z,44.32
2023-04-24T14:19:44.014Z,44.15
2023-04-24T14:22:13.305Z,44.35
2023-04-24T14:24:40.191Z,44.98
2023-04-24T14:27:07.306Z,43.72
2023-04-24T14:29:35.368Z,44.53
2023-04-24T14:32:02.530Z,45.89
2023-04-24T14:34:29.322Z,45.83
2023-04-24T14:36:57.601Z,46.39
2023-04-24T14:39:24.826Z,47.77
2023-04-24T14:41:51.869Z,48.12
2023-04-24T14:44:18.658Z,47.65
2023-04-24T14:46:45.555Z,48.43
2023-04-24T14:49:13.777Z,49.18
2023-04-24T14:51:41.156Z,49.13
2023-04-24T14:54:08.208Z,50.07
2023-04-24T14:56:35.326Z,49.54
2023-04-24T14:59:02.503Z,48.89
2023-04-24T15:01:31.153Z,49.57
2023-04-24T15:03:58.153Z,50.40
2023-04-24T15:06:25.987Z,50.00
2023-04-24T15:08:52.733Z,52.24
2023-04-24T15:11:19.759Z,51.38
2023-04-24T15:13:46.747Z,51.41
2023-04-24T15:16:14.203Z,51.09
2023-04-24T15:18:41.202Z,51.35
2023-04-24T15:21:11.326Z,51.32
2023-04-24T15:23:38.267Z,53.35
2023-04-24T15:26:05.514Z,53.12
2023-04-24T15:28:32.274Z,53.58
2023-04-24T15:30:59.089Z,53.69
2023-04-24T15:33:26.981Z,52.95
2023-04-24T15:35:53.847Z,54.25
2023-04-24T15:38:21.101Z,53.72
2023-04-24T15:40:49.397Z,54.55
2023-04-24T15:43:17.277Z,56.21
2023-04-24T15:45:44.312Z,56.82
2023-04-24T15:48:11.176Z,57.83
2023-04-24T15:50:37.998Z,59.06
2023-04-24T15:53:05.103Z,60.33
2023-04-24T15:55:31.960Z,61.96
2023-04-24T15:57:58.850Z,64.55
2023-04-24T16:00:26.030Z,65.36
2023-04-24T16:02:53.115Z,70.94
2023-04-24T16:05:20.683Z,69.90
2023-04-24T16:07:47.408Z,71.47
2023-04-24T16:10:16.836Z,71.39
2023-04-24T16:12:43.727Z,73.63
2023-04-24T16:15:11.338Z,74.82
2023-04-24T16:17:38.515Z,75.74
2023-04-24T16:20:06.322Z,77.42
2023-04-24T16:22:33.473Z,78.87
2023-04-24T16:25:00.972Z,82.73
2023-04-24T16:27:28.296Z,85.47
2023-04-24T16:29:57.026Z,85.42
2023-04-24T16:32:24.531Z,88.26
2023-04-24T16:34:52.441Z,92.22
2023-04-24T16:37:19.711Z,91.84
2023-04-24T16:39:47.047Z,94.71
2023-04-24T16:42:15.686Z,97.02
2023-04-24T16:44:44.092Z,97.75
2023-04-24T16:47:17.742Z,98.94
2023-04-24T16:49:45.256Z,100.00
2023-04-24T16:52:12.953Z,98.79
2023-04-24T16:54:40.548Z,100.00
2023-04-24T16:57:08.220Z,100.00
2023-04-24T16:59:35.853Z,100.00
2023-04-24T17:02:03.249Z,100.00
2023-04-24T17:04:31.520Z,100.00
2023-04-24T17:06:59.118Z,100.00
2023-04-24T17:09:26.337Z,100.00
2023-04-24T17:11:53.591Z,100.00
2023-04-24T17:14:21.219Z,100.00
2023-04-24T17:16:48.760Z,100.00
2023-04-24T17:19:16.171Z,100.00
2023-04-24T17:21:43.417Z,100.00
2023-04-24T17:24:11.044Z,100.00
2023-04-24T17:26:38.378Z,100.00
2023-04-24T17:29:05.558Z,100.00
2023-04-24T17:32:04.260Z,100.00
2023-04-24T17:34:36.430Z,100.00
2023-04-24T17:37:05.192Z,100.00
2023-04-24T17:39:36.554Z,100.00
2023-04-24T17:42:29.888Z,100.00
2023-04-24T17:45:13.565Z,98.85
2023-04-24T17:48:23.931Z,93.13
2023-04-24T17:51:10.892Z,93.83
2023-04-24T17:53:50.106Z,91.20
2023-04-24T17:56:46.623Z,90.57
2023-04-24T18:03:03.038Z,93.14
2023-04-24T18:05:52.671Z,94.64
2023-04-24T18:11:48.393Z,99.08
2023-04-24T18:14:15.698Z,100.00
2023-04-24T18:17:56.795Z,100.00
2023-04-24T18:20:23.779Z,100.00
2023-04-24T18:23:14.179Z,100.00
2023-04-24T18:28:41.989Z,100.00
2023-04-24T18:31:38.513Z,100.00
2023-04-24T18:34:09.850Z,100.00
2023-04-24T18:40:10.908Z,100.00
2023-04-24T18:42:41.837Z,100.00
2023-04-24T18:45:14.877Z,100.00
2023-04-24T18:47:50.713Z,100.00
2023-04-24T18:53:36.679Z,100.00
2023-04-24T18:56:21.633Z,100.00
2023-04-24T18:58:55.432Z,100.00
2023-04-24T19:01:23.612Z,100.00
2023-04-24T19:03:57.668Z,100.00
2023-04-24T19:06:25.825Z,100.00
2023-04-24T19:08:59.919Z,100.00
2023-04-24T19:11:34.217Z,100.00
2023-04-24T19:14:16.291Z,100.00
2023-04-24T19:16:48.392Z,100.00
2023-04-24T19:19:17.308Z,100.00
2023-04-24T19:21:50.239Z,100.00
2023-04-24T19:24:26.713Z,100.00
2023-04-24T19:29:52.348Z,100.00
2023-04-24T19:32:22.568Z,100.00
2023-04-24T19:38:56.797Z,100.00
2023-04-24T19:45:01.897Z,100.00
2023-04-24T19:47:29.995Z,100.00
2023-04-24T19:49:58.409Z,100.00
2023-04-24T19:52:48.646Z,100.00
2023-04-24T19:55:55.066Z,100.00
2023-04-24T19:58:56.390Z,100.00
2023-04-24T20:01:33.285Z,100.00
2023-04-24T20:04:02.805Z,100.00
2023-04-24T20:12:20.846Z,100.00
2023-04-24T20:14:52.873Z,100.00
2023-04-24T20:18:09.224Z,100.00
2023-04-24T20:21:00.501Z,100.00
2023-04-24T20:23:55.535Z,100.00
2023-04-24T20:26:28.762Z,100.00
2023-04-24T20:32:07.349Z,100.00
2023-04-24T20:34:56.573Z,100.00
2023-04-24T20:37:28.085Z,100.00
2023-04-24T20:39:56.713Z,100.00
2023-04-24T20:42:24.693Z,100.00
2023-04-24T20:44:51.896Z,100.00
2023-04-24T20:47:22.428Z,100.00
2023-04-24T20:49:50.931Z,100.00
2023-04-24T20:52:25.585Z,100.00
2023-04-24T20:54:53.720Z,100.00
2023-04-24T20:57:23.896Z,100.00
2023-04-24T20:59:59.816Z,100.00
2023-04-24T21:02:28.017Z,100.00
2023-04-24T21:05:04.877Z,100.00
2023-04-24T21:07:33.466Z,100.00
2023-04-24T21:10:05.451Z,100.00
2023-04-24T21:15:31.438Z,100.00
2023-04-24T21:17:59.228Z,100.00
2023-04-24T21:20:27.405Z,100.00
2023-04-24T21:23:17.197Z,100.00
2023-04-24T21:26:09.602Z,100.00
2023-04-24T21:28:37.394Z,100.00
2023-04-24T21:31:04.695Z,100.00
2023-04-24T21:33:43.597Z,100.00
2023-04-24T21:36:16.989Z,100.00
2023-04-24T21:38:50.430Z,100.00
2023-04-24T21:41:36.517Z,100.00
2023-04-24T21:44:03.779Z,100.00
2023-04-24T21:46:46.133Z,100.00
2023-04-24T21:49:17.475Z,100.00
2023-04-24T21:51:45.141Z,100.00
2023-04-24T21:54:39.642Z,100.00
2023-04-24T21:57:22.095Z,100.00
2023-04-24T22:00:10.221Z,100.00
2023-04-24T22:02:47.316Z,100.00
2023-04-24T22:05:32.816Z,100.00
2023-04-24T22:08:47.083Z,100.00
2023-04-24T22:11:25.687Z,100.00
2023-04-24T22:14:07.263Z,100.00
2023-04-24T22:16:49.034Z,100.00
2023-04-24T22:19:18.895Z,100.00
2023-04-24T22:21:52.023Z,100.00
2023-04-24T22:24:20.839Z,100.00
2023-04-24T22:26:49.173Z,100.00
2023-04-24T22:29:19.741Z,100.00
2023-04-24T22:31:47.699Z,100.00
2023-04-24T22:37:05.618Z,100.00
2023-04-24T22:39:42.301Z,100.00
2023-04-24T22:42:16.564Z,100.00
2023-04-24T22:44:49.462Z,100.00
2023-04-24T22:47:25.195Z,100.00
2023-04-24T22:49:54.535Z,100.00
2023-04-24T22:52:22.587Z,100.00
2023-04-24T22:54:52.895Z,100.00
2023-04-24T22:57:30.805Z,100.00
2023-04-24T23:00:00.549Z,100.00
2023-04-24T23:02:34.461Z,100.00
2023-04-24T23:05:05.347Z,100.00
2023-04-24T23:07:34.165Z,100.00
2023-04-24T23:10:10.804Z,100.00
2023-04-24T23:12:41.380Z,100.00
2023-04-24T23:15:11.362Z,100.00
2023-04-24T23:17:45.285Z,100.00
2023-04-24T23:20:16.949Z,100.00
2023-04-24T23:22:50.398Z,100.00
2023-04-24T23:25:20.769Z,100.00
2023-04-24T23:27:48.096Z,100.00
2023-04-24T23:30:15.809Z,100.00
2023-04-24T23:32:44.658Z,100.00
2023-04-24T23:35:15.941Z,100.00
2023-04-24T23:37:46.238Z,100.00
2023-04-24T23:40:13.906Z,100.00
2023-04-24T23:42:40.903Z,100.00
2023-04-24T23:45:08.706Z,100.00
2023-04-24T23:47:35.930Z,100.00
2023-04-24T23:50:03.015Z,100.00
2023-04-24T23:52:29.939Z,100.00
2023-04-24T23:54:56.915Z,100.00
2023-04-24T23:57:23.865Z,100.00
2023-04-24T23:59:50.823Z,100.00
